Lemhi County Airport
KSMN : now visible

Airfield :











YOU CAN JOIN US ON...

 
LOGIN :

Register | Disclaimer

   EN    FR    IT 

 









Legend :    VFR   Marginal VFR   IFR   Intensive IFR   Very Intensive IFR
Visi :
Ceiling :
>= 8 km
>= 3000ft
5 to 8 km
1000 to 3000 ft
1500m to 5 km
500 to 1000 ft
800 to 1500m
200 to 500 ft
< 800m
< 200 ft
Symbols :   Thunderstorms  Fog  Heavy snow  Heavy precipitations  Wind > 20 kt






- Airport Elevation : 4043 ft


KSMN - Lemhi County

CURRENT METAR :
  • 231456Z AUTO 00000KT 9SM FEW120 M20/M22 A3016 RMK AO2 SLP310 T12001222 51001 FZRANO

EXPIRED METARs :
  • 231356Z AUTO 00000KT 10SM CLR M21/M22 A3016 RMK AO2 SLP309 T12061222 FZRANO
  • 231256Z AUTO 00000KT 10SM CLR M19/M21 A3017 RMK AO2 SLP296 T11891211 FZRANO

TAF KSMN
Valid from the 23 at 12:00 until the 24 at 12:00 UTC


231120Z 2312/2412 00000KT P6SM SKC
FM232100 24010G25KT P6SM OVC080
FM240100 29015G30KT 4SM -SN OVC025
FM240300 32012G20KT 6SM -SHSN BKN040



MET'MAP, your aeronautical weather chart ! - Copyright ORBIFLY December 2007 - Disclaimer

ORBIFLY MET'MAP TEAM :

Programming & Development : Alexandra Zaïnal
Concept & original design : Baudouin d'Aumeries
Assistance for programming : Marc-Olivier Méhu
Technical & hardware support : Manuel Goepfert

Contact : metmap@orbifly.com




SOURCES & CREDITS :

   NOAA       Earth
Advisory